sensor_id;sensor_type;location;lat;lon;timestamp;pressure;altitude;pressure_sealevel;temperature
58929;BMP180;44713;53.378;10.022;2023-02-26T00:01:48;101360.00;;;0.00
58929;BMP180;44713;53.378;10.022;2023-02-26T00:04:14;101359.00;;;-0.10
58929;BMP180;44713;53.378;10.022;2023-02-26T00:06:40;101369.00;;;-0.10
58929;BMP180;44713;53.378;10.022;2023-02-26T00:09:17;101375.00;;;-0.10
58929;BMP180;44713;53.378;10.022;2023-02-26T00:11:42;101377.00;;;-0.20
58929;BMP180;44713;53.378;10.022;2023-02-26T00:14:12;101384.00;;;-0.10
58929;BMP180;44713;53.378;10.022;2023-02-26T00:16:38;101389.00;;;-0.20
58929;BMP180;44713;53.378;10.022;2023-02-26T00:19:06;101396.00;;;-0.10
58929;BMP180;44713;53.378;10.022;2023-02-26T00:21:33;101399.00;;;-0.20
58929;BMP180;44713;53.378;10.022;2023-02-26T00:23:59;101390.00;;;-0.20
58929;BMP180;44713;53.378;10.022;2023-02-26T00:26:27;101396.00;;;-0.20
58929;BMP180;44713;53.378;10.022;2023-02-26T00:28:53;101410.00;;;-0.20
58929;BMP180;44713;53.378;10.022;2023-02-26T00:31:19;101409.00;;;-0.20
58929;BMP180;44713;53.378;10.022;2023-02-26T00:33:55;101412.00;;;-0.20
58929;BMP180;44713;53.378;10.022;2023-02-26T00:36:45;101417.00;;;-0.20
58929;BMP180;44713;53.378;10.022;2023-02-26T00:39:32;101417.00;;;-0.30
58929;BMP180;44713;53.378;10.022;2023-02-26T00:41:59;101419.00;;;-0.40
58929;BMP180;44713;53.378;10.022;2023-02-26T00:44:25;101428.00;;;-0.40
58929;BMP180;44713;53.378;10.022;2023-02-26T00:50:04;101425.00;;;-0.40
58929;BMP180;44713;53.378;10.022;2023-02-26T00:55:35;101448.00;;;-0.40
58929;BMP180;44713;53.378;10.022;2023-02-26T00:58:02;101438.00;;;-0.40
58929;BMP180;44713;53.378;10.022;2023-02-26T01:00:28;101433.00;;;-0.40
58929;BMP180;44713;53.378;10.022;2023-02-26T01:02:55;101455.00;;;-0.50
58929;BMP180;44713;53.378;10.022;2023-02-26T01:05:21;101447.00;;;-0.50
58929;BMP180;44713;53.378;10.022;2023-02-26T01:10:22;101447.00;;;-0.70
58929;BMP180;44713;53.378;10.022;2023-02-26T01:12:48;101453.00;;;-0.70
58929;BMP180;44713;53.378;10.022;2023-02-26T01:15:14;101458.00;;;-0.80
58929;BMP180;44713;53.378;10.022;2023-02-26T01:17:46;101452.00;;;-0.80
58929;BMP180;44713;53.378;10.022;2023-02-26T01:20:17;101460.00;;;-0.80
58929;BMP180;44713;53.378;10.022;2023-02-26T01:22:53;101455.00;;;-0.90
58929;BMP180;44713;53.378;10.022;2023-02-26T01:27:52;101470.00;;;-0.90
58929;BMP180;44713;53.378;10.022;2023-02-26T01:30:18;101474.00;;;-0.90
58929;BMP180;44713;53.378;10.022;2023-02-26T01:35:45;101475.00;;;-0.80
58929;BMP180;44713;53.378;10.022;2023-02-26T01:46:44;101473.00;;;-0.80
58929;BMP180;44713;53.378;10.022;2023-02-26T01:49:14;101465.00;;;-0.80
58929;BMP180;44713;53.378;10.022;2023-02-26T01:51:49;101468.00;;;-0.80
58929;BMP180;44713;53.378;10.022;2023-02-26T01:54:17;101465.00;;;-0.70
58929;BMP180;44713;53.378;10.022;2023-02-26T01:56:44;101474.00;;;-0.80
58929;BMP180;44713;53.378;10.022;2023-02-26T01:59:14;101476.00;;;-0.90
58929;BMP180;44713;53.378;10.022;2023-02-26T02:01:40;101476.00;;;-0.80
58929;BMP180;44713;53.378;10.022;2023-02-26T02:04:09;101490.00;;;-0.80
58929;BMP180;44713;53.378;10.022;2023-02-26T02:06:35;101500.00;;;-0.90
58929;BMP180;44713;53.378;10.022;2023-02-26T02:09:03;101477.00;;;-0.90
58929;BMP180;44713;53.378;10.022;2023-02-26T02:11:30;101492.00;;;-0.80
58929;BMP180;44713;53.378;10.022;2023-02-26T02:14:26;101501.00;;;-0.90
58929;BMP180;44713;53.378;10.022;2023-02-26T02:28:27;101517.00;;;-0.90
58929;BMP180;44713;53.378;10.022;2023-02-26T02:31:10;101528.00;;;-0.80
58929;BMP180;44713;53.378;10.022;2023-02-26T02:34:01;101530.00;;;-0.90
58929;BMP180;44713;53.378;10.022;2023-02-26T02:36:37;101541.00;;;-0.90
58929;BMP180;44713;53.378;10.022;2023-02-26T02:39:22;101533.00;;;-0.90
58929;BMP180;44713;53.378;10.022;2023-02-26T02:41:53;101538.00;;;-0.90
58929;BMP180;44713;53.378;10.022;2023-02-26T02:44:23;101549.00;;;-0.90
58929;BMP180;44713;53.378;10.022;2023-02-26T02:46:51;101547.00;;;-0.90
58929;BMP180;44713;53.378;10.022;2023-02-26T02:49:26;101547.00;;;-0.90
58929;BMP180;44713;53.378;10.022;2023-02-26T02:51:57;101559.00;;;-0.80
58929;BMP180;44713;53.378;10.022;2023-02-26T02:54:39;101562.00;;;-0.70
58929;BMP180;44713;53.378;10.022;2023-02-26T02:57:13;101566.00;;;-0.70
58929;BMP180;44713;53.378;10.022;2023-02-26T02:59:46;101566.00;;;-0.80
58929;BMP180;44713;53.378;10.022;2023-02-26T03:02:25;101569.00;;;-0.80
58929;BMP180;44713;53.378;10.022;2023-02-26T03:04:52;101568.00;;;-0.90
58929;BMP180;44713;53.378;10.022;2023-02-26T03:07:18;101571.00;;;-0.90
58929;BMP180;44713;53.378;10.022;2023-02-26T03:09:43;101572.00;;;-0.90
58929;BMP180;44713;53.378;10.022;2023-02-26T03:12:11;101576.00;;;-0.90
58929;BMP180;44713;53.378;10.022;2023-02-26T03:14:37;101583.00;;;-1.00
58929;BMP180;44713;53.378;10.022;2023-02-26T03:17:19;101588.00;;;-1.00
58929;BMP180;44713;53.378;10.022;2023-02-26T03:30:37;101599.00;;;-1.10
58929;BMP180;44713;53.378;10.022;2023-02-26T03:35:43;101605.00;;;-1.00
58929;BMP180;44713;53.378;10.022;2023-02-26T03:38:18;101608.00;;;-1.00
58929;BMP180;44713;53.378;10.022;2023-02-26T03:40:56;101612.00;;;-1.00
58929;BMP180;44713;53.378;10.022;2023-02-26T03:43:44;101616.00;;;-1.20
58929;BMP180;44713;53.378;10.022;2023-02-26T03:46:15;101626.00;;;-1.20
58929;BMP180;44713;53.378;10.022;2023-02-26T03:48:42;101634.00;;;-1.10
58929;BMP180;44713;53.378;10.022;2023-02-26T03:51:10;101626.00;;;-1.20
58929;BMP180;44713;53.378;10.022;2023-02-26T03:54:15;101634.00;;;-1.20
58929;BMP180;44713;53.378;10.022;2023-02-26T03:56:50;101641.00;;;-1.30
58929;BMP180;44713;53.378;10.022;2023-02-26T03:59:35;101643.00;;;-1.30
58929;BMP180;44713;53.378;10.022;2023-02-26T04:02:29;101662.00;;;-1.40
58929;BMP180;44713;53.378;10.022;2023-02-26T04:05:15;101656.00;;;-1.40
58929;BMP180;44713;53.378;10.022;2023-02-26T04:07:43;101667.00;;;-1.40
58929;BMP180;44713;53.378;10.022;2023-02-26T04:10:10;101666.00;;;-1.40
58929;BMP180;44713;53.378;10.022;2023-02-26T04:12:38;101669.00;;;-1.40
58929;BMP180;44713;53.378;10.022;2023-02-26T04:15:06;101662.00;;;-1.50
58929;BMP180;44713;53.378;10.022;2023-02-26T04:17:32;101667.00;;;-1.50
58929;BMP180;44713;53.378;10.022;2023-02-26T04:19:59;101671.00;;;-1.50
58929;BMP180;44713;53.378;10.022;2023-02-26T04:22:24;101675.00;;;-1.50
58929;BMP180;44713;53.378;10.022;2023-02-26T04:24:50;101679.00;;;-1.50
58929;BMP180;44713;53.378;10.022;2023-02-26T04:27:16;101681.00;;;-1.60
58929;BMP180;44713;53.378;10.022;2023-02-26T04:29:42;101689.00;;;-1.60
58929;BMP180;44713;53.378;10.022;2023-02-26T04:32:07;101682.00;;;-1.60
58929;BMP180;44713;53.378;10.022;2023-02-26T04:34:32;101694.00;;;-1.60
58929;BMP180;44713;53.378;10.022;2023-02-26T04:36:58;101694.00;;;-1.60
58929;BMP180;44713;53.378;10.022;2023-02-26T04:39:23;101688.00;;;-1.70
58929;BMP180;44713;53.378;10.022;2023-02-26T04:41:49;101696.00;;;-1.70
58929;BMP180;44713;53.378;10.022;2023-02-26T04:44:14;101707.00;;;-1.70
58929;BMP180;44713;53.378;10.022;2023-02-26T04:46:40;101709.00;;;-1.80
58929;BMP180;44713;53.378;10.022;2023-02-26T04:49:05;101703.00;;;-1.70
58929;BMP180;44713;53.378;10.022;2023-02-26T04:51:31;101711.00;;;-1.70
58929;BMP180;44713;53.378;10.022;2023-02-26T04:53:57;101715.00;;;-1.80
58929;BMP180;44713;53.378;10.022;2023-02-26T04:56:22;101716.00;;;-1.80
58929;BMP180;44713;53.378;10.022;2023-02-26T04:58:47;101717.00;;;-1.80
58929;BMP180;44713;53.378;10.022;2023-02-26T05:01:18;101731.00;;;-1.80
58929;BMP180;44713;53.378;10.022;2023-02-26T05:03:43;101723.00;;;-1.80
58929;BMP180;44713;53.378;10.022;2023-02-26T05:06:09;101724.00;;;-1.90
58929;BMP180;44713;53.378;10.022;2023-02-26T05:08:35;101730.00;;;-1.90
58929;BMP180;44713;53.378;10.022;2023-02-26T05:11:01;101742.00;;;-1.90
58929;BMP180;44713;53.378;10.022;2023-02-26T05:13:27;101741.00;;;-1.90
58929;BMP180;44713;53.378;10.022;2023-02-26T05:15:53;101738.00;;;-1.90
58929;BMP180;44713;53.378;10.022;2023-02-26T05:18:19;101744.00;;;-1.90
58929;BMP180;44713;53.378;10.022;2023-02-26T05:20:45;101742.00;;;-2.00
58929;BMP180;44713;53.378;10.022;2023-02-26T05:23:15;101740.00;;;-2.00
58929;BMP180;44713;53.378;10.022;2023-02-26T05:25:40;101745.00;;;-2.10
58929;BMP180;44713;53.378;10.022;2023-02-26T05:28:06;101740.00;;;-2.10
58929;BMP180;44713;53.378;10.022;2023-02-26T05:30:31;101750.00;;;-2.00
58929;BMP180;44713;53.378;10.022;2023-02-26T05:32:56;101751.00;;;-2.10
58929;BMP180;44713;53.378;10.022;2023-02-26T05:35:22;101759.00;;;-2.00
58929;BMP180;44713;53.378;10.022;2023-02-26T05:37:47;101762.00;;;-2.10
58929;BMP180;44713;53.378;10.022;2023-02-26T05:40:13;101764.00;;;-2.10
58929;BMP180;44713;53.378;10.022;2023-02-26T05:42:39;101775.00;;;-2.20
58929;BMP180;44713;53.378;10.022;2023-02-26T05:45:05;101771.00;;;-2.20
58929;BMP180;44713;53.378;10.022;2023-02-26T05:47:34;101781.00;;;-2.10
58929;BMP180;44713;53.378;10.022;2023-02-26T05:50:00;101778.00;;;-2.20
58929;BMP180;44713;53.378;10.022;2023-02-26T05:52:26;101786.00;;;-2.20
58929;BMP180;44713;53.378;10.022;2023-02-26T05:54:51;101785.00;;;-2.10
58929;BMP180;44713;53.378;10.022;2023-02-26T05:57:16;101797.00;;;-2.20
58929;BMP180;44713;53.378;10.022;2023-02-26T05:59:42;101797.00;;;-2.20
58929;BMP180;44713;53.378;10.022;2023-02-26T06:02:07;101799.00;;;-2.20
58929;BMP180;44713;53.378;10.022;2023-02-26T06:04:33;101815.00;;;-2.20
58929;BMP180;44713;53.378;10.022;2023-02-26T06:06:58;101816.00;;;-2.20
58929;BMP180;44713;53.378;10.022;2023-02-26T06:09:24;101811.00;;;-2.20
58929;BMP180;44713;53.378;10.022;2023-02-26T06:11:49;101817.00;;;-2.10
58929;BMP180;44713;53.378;10.022;2023-02-26T06:14:15;101810.00;;;-2.20
58929;BMP180;44713;53.378;10.022;2023-02-26T06:16:40;101823.00;;;-2.20
58929;BMP180;44713;53.378;10.022;2023-02-26T06:19:06;101828.00;;;-2.20
58929;BMP180;44713;53.378;10.022;2023-02-26T06:21:31;101827.00;;;-2.20
58929;BMP180;44713;53.378;10.022;2023-02-26T06:23:56;101829.00;;;-2.20
58929;BMP180;44713;53.378;10.022;2023-02-26T06:26:22;101836.00;;;-2.30
58929;BMP180;44713;53.378;10.022;2023-02-26T06:28:47;101843.00;;;-2.20
58929;BMP180;44713;53.378;10.022;2023-02-26T06:31:12;101850.00;;;-2.20
58929;BMP180;44713;53.378;10.022;2023-02-26T06:33:38;101855.00;;;-2.20
58929;BMP180;44713;53.378;10.022;2023-02-26T06:36:04;101857.00;;;-2.20
58929;BMP180;44713;53.378;10.022;2023-02-26T06:38:29;101853.00;;;-2.20
58929;BMP180;44713;53.378;10.022;2023-02-26T06:40:54;101849.00;;;-2.20
58929;BMP180;44713;53.378;10.022;2023-02-26T06:43:20;101857.00;;;-2.20
58929;BMP180;44713;53.378;10.022;2023-02-26T06:45:45;101869.00;;;-2.20
58929;BMP180;44713;53.378;10.022;2023-02-26T06:48:11;101877.00;;;-2.10
58929;BMP180;44713;53.378;10.022;2023-02-26T06:50:36;101880.00;;;-2.10
58929;BMP180;44713;53.378;10.022;2023-02-26T06:53:02;101892.00;;;-2.10
58929;BMP180;44713;53.378;10.022;2023-02-26T06:55:27;101887.00;;;-2.10
58929;BMP180;44713;53.378;10.022;2023-02-26T06:57:53;101892.00;;;-2.10
58929;BMP180;44713;53.378;10.022;2023-02-26T07:00:19;101895.00;;;-2.10
58929;BMP180;44713;53.378;10.022;2023-02-26T07:02:45;101902.00;;;-2.00
58929;BMP180;44713;53.378;10.022;2023-02-26T07:05:10;101903.00;;;-2.00
58929;BMP180;44713;53.378;10.022;2023-02-26T07:07:36;101902.00;;;-2.00
58929;BMP180;44713;53.378;10.022;2023-02-26T07:10:02;101903.00;;;-1.90
58929;BMP180;44713;53.378;10.022;2023-02-26T07:12:27;101900.00;;;-1.90
58929;BMP180;44713;53.378;10.022;2023-02-26T07:14:52;101908.00;;;-1.90
58929;BMP180;44713;53.378;10.022;2023-02-26T07:17:18;101910.00;;;-1.80
58929;BMP180;44713;53.378;10.022;2023-02-26T07:19:47;101916.00;;;-1.70
58929;BMP180;44713;53.378;10.022;2023-02-26T07:22:13;101925.00;;;-1.70
58929;BMP180;44713;53.378;10.022;2023-02-26T07:24:40;101920.00;;;-1.60
58929;BMP180;44713;53.378;10.022;2023-02-26T07:27:06;101917.00;;;-1.50
58929;BMP180;44713;53.378;10.022;2023-02-26T07:29:31;101927.00;;;-1.30
58929;BMP180;44713;53.378;10.022;2023-02-26T07:31:56;101922.00;;;-1.30
58929;BMP180;44713;53.378;10.022;2023-02-26T07:34:22;101929.00;;;-1.20
58929;BMP180;44713;53.378;10.022;2023-02-26T07:36:47;101943.00;;;-1.10
58929;BMP180;44713;53.378;10.022;2023-02-26T07:39:13;101940.00;;;-1.10
58929;BMP180;44713;53.378;10.022;2023-02-26T07:41:38;101945.00;;;-0.90
58929;BMP180;44713;53.378;10.022;2023-02-26T07:44:12;101954.00;;;-0.80
58929;BMP180;44713;53.378;10.022;2023-02-26T07:46:37;101945.00;;;-0.80
58929;BMP180;44713;53.378;10.022;2023-02-26T07:49:03;101948.00;;;-0.80
58929;BMP180;44713;53.378;10.022;2023-02-26T07:51:28;101952.00;;;-0.70
58929;BMP180;44713;53.378;10.022;2023-02-26T07:53:53;101953.00;;;-0.60
58929;BMP180;44713;53.378;10.022;2023-02-26T07:56:19;101951.00;;;-0.60
58929;BMP180;44713;53.378;10.022;2023-02-26T07:58:44;101954.00;;;-0.50
58929;BMP180;44713;53.378;10.022;2023-02-26T08:01:09;101957.00;;;-0.40
58929;BMP180;44713;53.378;10.022;2023-02-26T08:03:35;101964.00;;;-0.40
58929;BMP180;44713;53.378;10.022;2023-02-26T08:06:00;101960.00;;;-0.30
58929;BMP180;44713;53.378;10.022;2023-02-26T08:08:27;101967.00;;;-0.30
58929;BMP180;44713;53.378;10.022;2023-02-26T08:10:53;101970.00;;;-0.20
58929;BMP180;44713;53.378;10.022;2023-02-26T08:13:19;101976.00;;;0.00
58929;BMP180;44713;53.378;10.022;2023-02-26T08:15:44;101972.00;;;0.00
58929;BMP180;44713;53.378;10.022;2023-02-26T08:18:10;101971.00;;;0.00
58929;BMP180;44713;53.378;10.022;2023-02-26T08:20:36;101966.00;;;0.10
58929;BMP180;44713;53.378;10.022;2023-02-26T08:23:01;101978.00;;;0.30
58929;BMP180;44713;53.378;10.022;2023-02-26T08:25:26;101981.00;;;0.50
58929;BMP180;44713;53.378;10.022;2023-02-26T08:27:52;101978.00;;;0.60
58929;BMP180;44713;53.378;10.022;2023-02-26T08:30:18;101987.00;;;0.60
58929;BMP180;44713;53.378;10.022;2023-02-26T08:32:43;101979.00;;;0.80
58929;BMP180;44713;53.378;10.022;2023-02-26T08:35:10;101979.00;;;0.80
58929;BMP180;44713;53.378;10.022;2023-02-26T08:37:37;101989.00;;;0.90
58929;BMP180;44713;53.378;10.022;2023-02-26T08:40:05;101990.00;;;1.00
58929;BMP180;44713;53.378;10.022;2023-02-26T08:42:31;101996.00;;;1.10
58929;BMP180;44713;53.378;10.022;2023-02-26T08:44:56;101992.00;;;1.20
58929;BMP180;44713;53.378;10.022;2023-02-26T08:47:21;101999.00;;;1.20
58929;BMP180;44713;53.378;10.022;2023-02-26T08:49:47;102011.00;;;1.30
58929;BMP180;44713;53.378;10.022;2023-02-26T08:52:12;102007.00;;;1.30
58929;BMP180;44713;53.378;10.022;2023-02-26T08:54:37;102022.00;;;1.40
58929;BMP180;44713;53.378;10.022;2023-02-26T08:57:03;102033.00;;;1.40
58929;BMP180;44713;53.378;10.022;2023-02-26T08:59:28;102034.00;;;1.60
58929;BMP180;44713;53.378;10.022;2023-02-26T09:01:54;102041.00;;;1.70
58929;BMP180;44713;53.378;10.022;2023-02-26T09:04:19;102039.00;;;1.80
58929;BMP180;44713;53.378;10.022;2023-02-26T09:06:45;102041.00;;;1.70
58929;BMP180;44713;53.378;10.022;2023-02-26T09:09:10;102050.00;;;1.70
58929;BMP180;44713;53.378;10.022;2023-02-26T09:11:36;102049.00;;;1.80
58929;BMP180;44713;53.378;10.022;2023-02-26T09:14:02;102046.00;;;1.90
58929;BMP180;44713;53.378;10.022;2023-02-26T09:16:29;102048.00;;;2.00
58929;BMP180;44713;53.378;10.022;2023-02-26T09:18:56;102056.00;;;2.00
58929;BMP180;44713;53.378;10.022;2023-02-26T09:21:22;102054.00;;;2.00
58929;BMP180;44713;53.378;10.022;2023-02-26T09:23:47;102055.00;;;2.10
58929;BMP180;44713;53.378;10.022;2023-02-26T09:26:13;102071.00;;;2.20
58929;BMP180;44713;53.378;10.022;2023-02-26T09:28:39;102068.00;;;2.20
58929;BMP180;44713;53.378;10.022;2023-02-26T09:31:04;102072.00;;;2.30
58929;BMP180;44713;53.378;10.022;2023-02-26T09:33:31;102076.00;;;2.40
58929;BMP180;44713;53.378;10.022;2023-02-26T09:35:57;102084.00;;;2.50
58929;BMP180;44713;53.378;10.022;2023-02-26T09:38:22;102082.00;;;2.70
58929;BMP180;44713;53.378;10.022;2023-02-26T09:43:47;102096.00;;;2.80
58929;BMP180;44713;53.378;10.022;2023-02-26T09:49:46;102098.00;;;3.10
58929;BMP180;44713;53.378;10.022;2023-02-26T09:55:14;102093.00;;;3.20
58929;BMP180;44713;53.378;10.022;2023-02-26T09:57:45;102091.00;;;3.20
58929;BMP180;44713;53.378;10.022;2023-02-26T10:05:42;102096.00;;;3.40
58929;BMP180;44713;53.378;10.022;2023-02-26T10:08:20;102103.00;;;3.50
58929;BMP180;44713;53.378;10.022;2023-02-26T10:11:11;102105.00;;;3.60
58929;BMP180;44713;53.378;10.022;2023-02-26T10:13:52;102100.00;;;3.70
58929;BMP180;44713;53.378;10.022;2023-02-26T10:16:22;102098.00;;;3.80
58929;BMP180;44713;53.378;10.022;2023-02-26T10:18:54;102095.00;;;4.00
58929;BMP180;44713;53.378;10.022;2023-02-26T10:21:37;102102.00;;;4.10
58929;BMP180;44713;53.378;10.022;2023-02-26T10:24:10;102102.00;;;4.30
58929;BMP180;44713;53.378;10.022;2023-02-26T10:26:44;102102.00;;;4.30
58929;BMP180;44713;53.378;10.022;2023-02-26T10:29:39;102107.00;;;4.40
58929;BMP180;44713;53.378;10.022;2023-02-26T10:32:25;102105.00;;;4.50
58929;BMP180;44713;53.378;10.022;2023-02-26T10:34:57;102110.00;;;4.70
58929;BMP180;44713;53.378;10.022;2023-02-26T10:40:30;102126.00;;;5.00
58929;BMP180;44713;53.378;10.022;2023-02-26T10:45:42;102126.00;;;5.00
58929;BMP180;44713;53.378;10.022;2023-02-26T10:50:55;102132.00;;;5.00
58929;BMP180;44713;53.378;10.022;2023-02-26T10:53:22;102135.00;;;5.10
58929;BMP180;44713;53.378;10.022;2023-02-26T10:56:19;102136.00;;;5.20
58929;BMP180;44713;53.378;10.022;2023-02-26T10:58:45;102133.00;;;5.10
58929;BMP180;44713;53.378;10.022;2023-02-26T11:01:19;102128.00;;;5.20
58929;BMP180;44713;53.378;10.022;2023-02-26T11:03:48;102133.00;;;5.40
58929;BMP180;44713;53.378;10.022;2023-02-26T11:06:23;102137.00;;;5.50
58929;BMP180;44713;53.378;10.022;2023-02-26T11:08:54;102122.00;;;5.50
58929;BMP180;44713;53.378;10.022;2023-02-26T11:14:05;102138.00;;;5.70
58929;BMP180;44713;53.378;10.022;2023-02-26T11:16:33;102132.00;;;6.00
58929;BMP180;44713;53.378;10.022;2023-02-26T11:19:00;102135.00;;;6.20
58929;BMP180;44713;53.378;10.022;2023-02-26T11:21:28;102133.00;;;6.40
58929;BMP180;44713;53.378;10.022;2023-02-26T11:24:01;102137.00;;;6.50
58929;BMP180;44713;53.378;10.022;2023-02-26T11:26:31;102136.00;;;6.60
58929;BMP180;44713;53.378;10.022;2023-02-26T11:28:58;102143.00;;;6.20
58929;BMP180;44713;53.378;10.022;2023-02-26T11:31:25;102141.00;;;6.10
58929;BMP180;44713;53.378;10.022;2023-02-26T11:33:53;102142.00;;;6.00
58929;BMP180;44713;53.378;10.022;2023-02-26T11:36:24;102145.00;;;5.90
58929;BMP180;44713;53.378;10.022;2023-02-26T11:38:56;102158.00;;;6.00
58929;BMP180;44713;53.378;10.022;2023-02-26T11:41:22;102148.00;;;6.00
58929;BMP180;44713;53.378;10.022;2023-02-26T11:44:03;102138.00;;;6.20
58929;BMP180;44713;53.378;10.022;2023-02-26T11:46:29;102127.00;;;6.70
58929;BMP180;44713;53.378;10.022;2023-02-26T11:48:57;102143.00;;;7.00
58929;BMP180;44713;53.378;10.022;2023-02-26T11:51:24;102144.00;;;7.00
58929;BMP180;44713;53.378;10.022;2023-02-26T11:56:40;102138.00;;;7.10
58929;BMP180;44713;53.378;10.022;2023-02-26T11:59:22;102133.00;;;7.20
58929;BMP180;44713;53.378;10.022;2023-02-26T12:01:49;102142.00;;;7.40
58929;BMP180;44713;53.378;10.022;2023-02-26T12:04:23;102141.00;;;7.20
58929;BMP180;44713;53.378;10.022;2023-02-26T12:06:51;102144.00;;;7.20
58929;BMP180;44713;53.378;10.022;2023-02-26T12:09:18;102141.00;;;7.30
58929;BMP180;44713;53.378;10.022;2023-02-26T12:15:45;102134.00;;;8.00
58929;BMP180;44713;53.378;10.022;2023-02-26T12:18:02;102143.00;;;8.30
58929;BMP180;44713;53.378;10.022;2023-02-26T12:20:34;102143.00;;;7.70
58929;BMP180;44713;53.378;10.022;2023-02-26T12:23:31;102142.00;;;7.70
58929;BMP180;44713;53.378;10.022;2023-02-26T12:34:00;102147.00;;;7.20
58929;BMP180;44713;53.378;10.022;2023-02-26T12:36:49;102146.00;;;7.10
58929;BMP180;44713;53.378;10.022;2023-02-26T12:47:25;102170.00;;;6.50
58929;BMP180;44713;53.378;10.022;2023-02-26T12:58:20;102180.00;;;5.80
58929;BMP180;44713;53.378;10.022;2023-02-26T13:01:03;102181.00;;;6.00
58929;BMP180;44713;53.378;10.022;2023-02-26T13:03:58;102179.00;;;5.80
58929;BMP180;44713;53.378;10.022;2023-02-26T13:09:45;102179.00;;;5.90
58929;BMP180;44713;53.378;10.022;2023-02-26T13:18:22;102175.00;;;6.50
58929;BMP180;44713;53.378;10.022;2023-02-26T13:21:01;102175.00;;;6.60
58929;BMP180;44713;53.378;10.022;2023-02-26T13:23:44;102183.00;;;6.70
58929;BMP180;44713;53.378;10.022;2023-02-26T13:26:11;102178.00;;;6.40
58929;BMP180;44713;53.378;10.022;2023-02-26T13:31:31;102176.00;;;6.20
58929;BMP180;44713;53.378;10.022;2023-02-26T13:34:03;102177.00;;;6.30
58929;BMP180;44713;53.378;10.022;2023-02-26T13:36:31;102171.00;;;6.00
58929;BMP180;44713;53.378;10.022;2023-02-26T13:42:00;102174.00;;;6.20
58929;BMP180;44713;53.378;10.022;2023-02-26T13:44:42;102174.00;;;6.30
58929;BMP180;44713;53.378;10.022;2023-02-26T13:50:22;102167.00;;;6.20
58929;BMP180;44713;53.378;10.022;2023-02-26T13:52:51;102170.00;;;6.00
58929;BMP180;44713;53.378;10.022;2023-02-26T13:55:42;102168.00;;;6.10
58929;BMP180;44713;53.378;10.022;2023-02-26T13:58:28;102170.00;;;6.20
58929;BMP180;44713;53.378;10.022;2023-02-26T14:01:14;102171.00;;;6.20
58929;BMP180;44713;53.378;10.022;2023-02-26T14:03:46;102162.00;;;6.30
58929;BMP180;44713;53.378;10.022;2023-02-26T14:06:39;102169.00;;;6.30
58929;BMP180;44713;53.378;10.022;2023-02-26T14:12:02;102157.00;;;6.10
58929;BMP180;44713;53.378;10.022;2023-02-26T14:19:37;102170.00;;;6.40
58929;BMP180;44713;53.378;10.022;2023-02-26T14:27:32;102171.00;;;5.70
58929;BMP180;44713;53.378;10.022;2023-02-26T14:32:31;102173.00;;;5.80
58929;BMP180;44713;53.378;10.022;2023-02-26T14:35:02;102175.00;;;5.80
58929;BMP180;44713;53.378;10.022;2023-02-26T14:37:32;102178.00;;;5.80
58929;BMP180;44713;53.378;10.022;2023-02-26T14:40:11;102166.00;;;5.90
58929;BMP180;44713;53.378;10.022;2023-02-26T14:42:43;102182.00;;;6.20
58929;BMP180;44713;53.378;10.022;2023-02-26T14:47:42;102174.00;;;6.10
58929;BMP180;44713;53.378;10.022;2023-02-26T14:50:13;102174.00;;;6.00
58929;BMP180;44713;53.378;10.022;2023-02-26T14:55:46;102184.00;;;6.30
58929;BMP180;44713;53.378;10.022;2023-02-26T14:58:31;102176.00;;;6.50
58929;BMP180;44713;53.378;10.022;2023-02-26T15:01:24;102179.00;;;6.40
58929;BMP180;44713;53.378;10.022;2023-02-26T15:04:13;102184.00;;;6.60
58929;BMP180;44713;53.378;10.022;2023-02-26T15:09:41;102184.00;;;6.60
58929;BMP180;44713;53.378;10.022;2023-02-26T15:25:28;102192.00;;;6.00
58929;BMP180;44713;53.378;10.022;2023-02-26T15:27:55;102193.00;;;6.00
58929;BMP180;44713;53.378;10.022;2023-02-26T15:30:22;102194.00;;;6.10
58929;BMP180;44713;53.378;10.022;2023-02-26T15:32:47;102191.00;;;6.10
58929;BMP180;44713;53.378;10.022;2023-02-26T15:35:19;102202.00;;;6.20
58929;BMP180;44713;53.378;10.022;2023-02-26T15:37:51;102198.00;;;6.30
58929;BMP180;44713;53.378;10.022;2023-02-26T15:40:17;102208.00;;;6.20
58929;BMP180;44713;53.378;10.022;2023-02-26T15:42:44;102203.00;;;6.20
58929;BMP180;44713;53.378;10.022;2023-02-26T15:45:54;102205.00;;;6.10
58929;BMP180;44713;53.378;10.022;2023-02-26T15:48:27;102216.00;;;6.10
58929;BMP180;44713;53.378;10.022;2023-02-26T15:51:00;102209.00;;;6.00
58929;BMP180;44713;53.378;10.022;2023-02-26T15:53:47;102218.00;;;5.90
58929;BMP180;44713;53.378;10.022;2023-02-26T15:56:24;102214.00;;;5.80
58929;BMP180;44713;53.378;10.022;2023-02-26T15:59:17;102221.00;;;5.70
58929;BMP180;44713;53.378;10.022;2023-02-26T16:01:43;102218.00;;;5.60
58929;BMP180;44713;53.378;10.022;2023-02-26T16:04:14;102223.00;;;5.70
58929;BMP180;44713;53.378;10.022;2023-02-26T16:06:43;102220.00;;;5.60
58929;BMP180;44713;53.378;10.022;2023-02-26T16:09:17;102223.00;;;5.50
58929;BMP180;44713;53.378;10.022;2023-02-26T16:11:43;102226.00;;;5.50
58929;BMP180;44713;53.378;10.022;2023-02-26T16:14:16;102223.00;;;5.30
58929;BMP180;44713;53.378;10.022;2023-02-26T16:16:48;102236.00;;;5.40
58929;BMP180;44713;53.378;10.022;2023-02-26T16:19:16;102235.00;;;5.30
58929;BMP180;44713;53.378;10.022;2023-02-26T16:21:42;102236.00;;;5.30
58929;BMP180;44713;53.378;10.022;2023-02-26T16:24:14;102234.00;;;5.30
58929;BMP180;44713;53.378;10.022;2023-02-26T16:26:52;102245.00;;;5.30
58929;BMP180;44713;53.378;10.022;2023-02-26T16:29:22;102242.00;;;5.30
58929;BMP180;44713;53.378;10.022;2023-02-26T16:31:52;102243.00;;;5.40
58929;BMP180;44713;53.378;10.022;2023-02-26T16:34:34;102246.00;;;5.30
58929;BMP180;44713;53.378;10.022;2023-02-26T16:37:17;102257.00;;;5.10
58929;BMP180;44713;53.378;10.022;2023-02-26T16:39:44;102254.00;;;5.10
58929;BMP180;44713;53.378;10.022;2023-02-26T16:42:21;102252.00;;;4.90
58929;BMP180;44713;53.378;10.022;2023-02-26T16:44:56;102265.00;;;4.90
58929;BMP180;44713;53.378;10.022;2023-02-26T16:47:29;102270.00;;;4.90